This is the latest recevied weather packets stored in our database for station/object IW4DZV-13. If no packets are shown the sender has not sent any weather packets the latest 10 day(s).
| Time | Temp. | Humidity | Pressure | Rain* | Wind** | Luminosity | Snow |
|---|---|---|---|---|---|---|---|
| 1787748344 | 30° C | 56% | 1015.2 hPa | 0.25 mm | - | 190 W/m² | - |
| 1787747446 | 30° C | 57% | 1015.3 hPa | 0.25 mm | - | 775 W/m² | - |
| 1787746544 | 30.56° C | 54% | 1015.6 hPa | 0.25 mm | - | 856 W/m² | - |
| 1787745640 | 30° C | 61% | 1015.9 hPa | 0.25 mm | - | 916 W/m² | - |
| 1787744738 | 29.44° C | 62% | 1015.9 hPa | 0.25 mm | - | 374 W/m² | - |
| 1787743839 | 29.44° C | 59% | 1015.9 hPa | 0.25 mm | - | 232 W/m² | - |
| 1787742936 | 29.44° C | 59% | 1015.9 hPa | 0.25 mm | - | 483 W/m² | - |
| 1787742036 | 28.89° C | 66% | 1016.1 hPa | 0.25 mm | - | 919 W/m² | - |
| 1787741129 | 28.33° C | 69% | 1016.1 hPa | 0.25 mm | - | 988 W/m² | - |
| 1787740232 | 27.22° C | 70% | 1016.1 hPa | 0.25 mm | - | 232 W/m² | - |
| 1787739330 | 27.22° C | 68% | 1016.2 hPa | 0.25 mm | - | 237 W/m² | - |
| 1787738428 | 27.22° C | 67% | 1016.3 hPa | 0.25 mm | - | 236 W/m² | - |
| 1787737531 | 27.22° C | 69% | 1016.4 hPa | 0.25 mm | - | 223 W/m² | - |
| 1787736626 | 27.78° C | 68% | 1016.4 hPa | 0 mm | - | 824 W/m² | - |
| 1787735725 | 27.78° C | 68% | 1016.5 hPa | 0 mm | - | 772 W/m² | - |
| 1787734824 | 27.78° C | 72% | 1016.4 hPa | 0 mm | - | 701 W/m² | - |
| 1787733921 | 27.22° C | 71% | 1016.4 hPa | 0 mm | - | 654 W/m² | - |
| 1787733014 | 26.67° C | 72% | 1016.4 hPa | 0 mm | - | 617 W/m² | - |
| 1787732111 | 26.11° C | 75% | 1016.3 hPa | 0 mm | - | 559 W/m² | - |
| 1787731207 | 25.56° C | 77% | 1016.3 hPa | 0 mm | - | 540 W/m² | - |
| 1787730305 | 25.56° C | 79% | 1016.2 hPa | 0 mm | - | 330 W/m² | - |
| 1787729403 | 25° C | 81% | 1016 hPa | 0 mm | - | 490 W/m² | - |
| 1787728562 | 24.44° C | 81% | 1015.9 hPa | 0 mm | - | 404 W/m² | - |
| 1787727656 | 24.44° C | 82% | 1015.8 hPa | 0 mm | - | 366 W/m² | - |
| 1787726751 | 23.33° C | 86% | 1015.8 hPa | 0 mm | - | 302 W/m² | - |
* Rain since midnight (hover to see other rain measurements)
** Current wind speed in m/s (hover to see current wind gust speed)